EmailTwitter


Observations de surface / France / LFBO (07630)

Régions: Québec | Canada | États-Unis | Europe | France | UK | Elsewhere
Station
Affichage
Infos & localisation pour LFBO (07630) | Aide pour décoder les METARs

Observations prises le 2017-04-24 à 09H00 UTC à TOULOUSE/BLAGNAC, FR (LFBO)

Etat du ciel: quelques nuages.

Température: 18.0 Celsius

Point de rosée: 4.0 Celsius

Humidité relative: 39%

Vents: Sud-est à 20 km/h ou 11 noeuds.

Pression au niveau moyen de la mer: 101.60 kilopascals.

Visibilité horizontale: 6.21 milles terrestres ou 9.94 kilomètres.

Observation METAR:

LFBO 240900Z AUTO 14011KT 110V170 9999 FEW007 18/04 Q1016 NOSIG=